Nearby METAR Reports

 

KAGC - Pittsburgh/Alleg, Pennsylvania, USA
Distance from station: SW 8mi, 12km
Updated: Tue, 19-Oct-2021 4:53pm EDT
Clear
Clear
 Wind from W
Wind: W 12 mph , 19 km/h, Gust: 20 mph , 31 km/h
Temperature: 70°F , 21°C
Dew Point: 43°F , 6°C
Humidity: 38%
Barometer: 30.10 inHg , 1019.3 hPa
Clouds: Clear
Visibility: 10 miles , 16 km
2021/10/19 20:53 KAGC 192053Z 26010G17KT 10SM CLR 21/06 A3010 RMK AO2 SLP198 T02060056 56010
KLBE - Latrobe/Westmorl, Pennsylvania, USA
Distance from station: ESE 24mi, 38km
Updated: Tue, 19-Oct-2021 4:47pm EDT
Clear
Clear
 Wind from SW
Wind: SW 7 mph , 11 km/h, Gust: 14 mph , 22 km/h
Temperature: 68°F , 20°C
Dew Point: 45°F , 7°C
Humidity: 43%
Barometer: 30.11 inHg , 1019.6 hPa
Clouds: Clear
Visibility: 20 miles , 32 km
2021/10/19 20:47 KLBE 192047Z 23006G12KT 20SM CLR 20/07 A3011
 
KPIT - Pittsburgh, Pennsylvania, USA
Distance from station: WNW 25mi, 40km
Updated: Tue, 19-Oct-2021 4:51pm EDT
Few Clouds
Few Clouds
 Wind from W
Wind: W 12 mph , 19 km/h
Temperature: 70°F , 21°C
Dew Point: 43°F , 6°C
Humidity: 38%
Barometer: 30.11 inHg , 1019.6 hPa
Clouds: Few Clouds
Visibility: 10 miles , 16 km
Cloud details: Few Clouds 5400 ft
Few Clouds 25000 ft
2021/10/19 20:51 KPIT 192051Z 28010KT 10SM FEW054 FEW250 21/06 A3011 RMK AO2 SLP204 T02060061 56010
KBTP - Butler Co., Pennsylvania, USA
Distance from station: NNW 25mi, 41km
Updated: Tue, 19-Oct-2021 4:56pm EDT
Clear
Clear
 Wind from W
Wind: W 10 mph , 17 km/h, Gust: 18 mph , 30 km/h
Temperature: 68°F , 20°C
Dew Point: 45°F , 7°C
Humidity: 43%
Barometer: 30.11 inHg , 1019.6 hPa
Clouds: Clear
Visibility: 10 miles , 16 km
2021/10/19 20:56 KBTP 192056Z AUTO 28009G16KT 10SM CLR 20/07 A3011 RMK AO2 SLP200 T02000072 56010
 
KAFJ - Washington, Pennsylvania, USA
Distance from station: SW 32mi, 52km
Updated: Tue, 19-Oct-2021 4:56pm EDT
Clear
Clear
 Wind from WSW
Wind: WSW 10 mph , 17 km/h
Temperature: 68°F , 20°C
Dew Point: 45°F , 7°C
Humidity: 43%
Barometer: 30.15 inHg , 1021 hPa
Clouds: Clear
Visibility: 10 miles , 16 km
2021/10/19 20:56 KAFJ 192056Z AUTO 25009KT 10SM CLR 20/07 A3015 RMK AO2 SLP211 T02000067 56009
KBVI - Beaver Falls Arp, Pennsylvania, USA
Distance from station: NW 40mi, 64km
Updated: Tue, 19-Oct-2021 5:15pm EDT
Partly cloudy
Partly cloudy
 Wind from W
Wind: W 8 mph , 13 km/h
Temperature: 72°F , 22°C
Dew Point: 43°F , 6°C
Humidity: 36%
Barometer: 30.11 inHg , 1019.6 hPa
Clouds: Partly cloudy
Visibility: 10 miles , 16 km
Cloud details: Partly cloudy 6000 ft
2021/10/19 21:15 KBVI 192115Z AUTO 26007KT 240V300 10SM SCT060 22/06 A3011 RMK AO2 T02210061
 
KIDI - Indiana/Stewart, Pennsylvania, USA
Distance from station: ENE 40mi, 65km
Updated: Tue, 19-Oct-2021 5:15pm EDT
Clear
Clear
 Wind from W
Wind: W 10 mph , 17 km/h
Temperature: 66°F , 19°C
Dew Point: 45°F , 7°C
Humidity: 46%
Barometer: 30.13 inHg , 1020.3 hPa
Clouds: Clear
Visibility: 10 miles , 16 km
2021/10/19 21:15 KIDI 192115Z AUTO 28009KT 10SM CLR 19/07 A3013 RMK A01
KHLG - Wheeling, West Virginia, USA
Distance from station: WSW 48mi, 77km
Updated: Tue, 19-Oct-2021 4:53pm EDT
Clear
Clear
 Wind from W
Wind: W 9 mph , 15 km/h
Temperature: 70°F , 21°C
Dew Point: 43°F , 6°C
Humidity: 38%
Barometer: 30.13 inHg , 1020.3 hPa
Clouds: Clear
Visibility: 10 miles , 16 km
2021/10/19 20:53 KHLG 192053Z 26008KT 10SM CLR 21/06 A3013 RMK AO2 SLP205 T02060061 56009
 
K2G9 - Somerset, Pennsylvania, USA
Distance from station: ESE 49mi, 79km
Updated: Tue, 19-Oct-2021 5:15pm EDT
Clear
Clear
 Wind from W
Wind: W 12 mph , 19 km/h, Gust: 23 mph , 37 km/h
Temperature: 61°F , 16°C
Dew Point: 41°F , 5°C
Humidity: 48%
Barometer: 30.13 inHg , 1020.3 hPa
Clouds: Clear
Visibility: 10 miles , 16 km
2021/10/19 21:15 K2G9 192115Z AUTO 27010G20KT 10SM CLR 16/05 A3013 RMK AO2